Terminal Aerodrome Forecast
Issued by NWS Amarillo, TX

Home | Current Version | Previous Version | Text Only | Print | Product List | Glossary On
Versions: 1 2 3 4 5 6 7 8 9 10 11 12 13 14 15 16 17 18 19 20 21
000
FTUS44 KAMA 271200 AAA
TAFDHT
TAF AMD
KDHT 271254Z 2713/2812 12012KT 4SM -SN BR BKN015 OVC060
     FM271600 16014KT P6SM OVC015
     FM280400 17013KT 3SM -SN BR OVC010=

USA.gov is the U.S. government's official web portal to all federal, state and local government web resources and services.